createdAt,value
2019-02-05T00:01:53.064Z,11.80
2019-02-05T00:04:24.311Z,15.73
2019-02-05T00:06:55.342Z,12.90
2019-02-05T00:09:26.723Z,12.10
2019-02-05T00:11:58.113Z,16.43
2019-02-05T00:14:29.362Z,15.33
2019-02-05T00:17:00.400Z,11.33
2019-02-05T00:19:31.272Z,12.43
2019-02-05T00:22:02.082Z,10.10
2019-02-05T00:24:33.666Z,15.77
2019-02-05T00:27:05.199Z,11.83
2019-02-05T00:29:36.008Z,12.30
2019-02-05T00:32:06.798Z,14.27
2019-02-05T00:34:38.721Z,10.87
2019-02-05T00:37:10.104Z,13.00
2019-02-05T00:39:41.651Z,12.43
2019-02-05T00:42:12.738Z,15.37
2019-02-05T00:44:43.489Z,14.10
2019-02-05T00:47:14.314Z,12.20
2019-02-05T00:49:45.592Z,12.83
2019-02-05T00:52:17.805Z,12.83
2019-02-05T00:54:49.376Z,15.20
2019-02-05T00:57:20.425Z,11.87
2019-02-05T00:59:54.374Z,12.10
2019-02-05T01:02:25.744Z,12.33
2019-02-05T01:04:56.779Z,11.17
2019-02-05T01:07:33.004Z,14.13
2019-02-05T01:10:04.052Z,9.10
2019-02-05T01:12:36.243Z,14.97
2019-02-05T01:15:08.360Z,11.00
2019-02-05T01:17:42.296Z,11.67
2019-02-05T01:20:19.711Z,10.47
2019-02-05T01:22:50.848Z,11.00
2019-02-05T01:25:22.136Z,11.87
2019-02-05T01:27:53.452Z,8.77
2019-02-05T01:30:27.231Z,9.97
2019-02-05T01:32:58.615Z,9.87
2019-02-05T01:35:29.634Z,11.03
2019-02-05T01:38:00.465Z,11.37
2019-02-05T01:40:33.208Z,12.40
2019-02-05T01:43:05.170Z,10.50
2019-02-05T01:45:36.394Z,11.43
2019-02-05T01:48:07.365Z,10.83
2019-02-05T01:50:38.278Z,11.97
2019-02-05T01:53:09.050Z,8.80
2019-02-05T01:55:40.507Z,9.83
2019-02-05T01:58:11.345Z,10.43
2019-02-05T02:00:42.114Z,9.40
2019-02-05T02:03:12.811Z,10.97
2019-02-05T02:05:44.195Z,9.67
2019-02-05T02:08:15.095Z,13.30
2019-02-05T02:10:45.822Z,8.77
2019-02-05T02:13:20.038Z,7.70
2019-02-05T02:15:51.825Z,7.80
2019-02-05T02:18:23.109Z,11.73
2019-02-05T02:20:55.025Z,9.60
2019-02-05T02:23:25.870Z,11.10
2019-02-05T02:26:00.040Z,10.10
2019-02-05T02:28:31.173Z,9.83
2019-02-05T02:31:02.285Z,11.20
2019-02-05T02:33:33.358Z,8.73
2019-02-05T02:36:04.637Z,10.20
2019-02-05T02:38:35.603Z,10.43
2019-02-05T02:41:06.736Z,10.20
2019-02-05T02:43:38.322Z,10.50
2019-02-05T02:46:09.373Z,11.20
2019-02-05T02:48:40.067Z,13.87
2019-02-05T02:51:11.027Z,9.30
2019-02-05T02:53:42.309Z,10.03
2019-02-05T02:56:13.040Z,12.17
2019-02-05T02:58:45.080Z,10.10
2019-02-05T03:01:16.943Z,10.50
2019-02-05T03:03:48.624Z,9.73
2019-02-05T03:06:19.994Z,10.93
2019-02-05T03:08:53.351Z,10.30
2019-02-05T03:11:24.618Z,9.23
2019-02-05T03:13:55.922Z,9.20
2019-02-05T03:16:26.637Z,9.00
2019-02-05T03:18:57.378Z,9.57
2019-02-05T03:21:28.278Z,11.40
2019-02-05T03:23:59.788Z,8.03
2019-02-05T03:26:32.196Z,9.37
2019-02-05T03:29:03.015Z,12.13
2019-02-05T03:31:33.879Z,9.33
2019-02-05T03:34:05.555Z,8.67
2019-02-05T03:36:36.557Z,9.50
2019-02-05T03:39:08.772Z,7.83
2019-02-05T03:41:39.990Z,13.43
2019-02-05T03:44:10.750Z,9.50
2019-02-05T03:46:41.925Z,9.20
2019-02-05T03:49:13.101Z,12.87
2019-02-05T03:52:11.084Z,12.17
2019-02-05T03:55:28.791Z,9.80
2019-02-05T03:58:27.210Z,11.23
2019-02-05T04:01:43.416Z,8.07
2019-02-05T04:04:50.486Z,8.53
2019-02-05T04:07:57.569Z,13.60
2019-02-05T04:11:05.079Z,12.17
2019-02-05T04:14:11.659Z,9.53
2019-02-05T04:17:27.848Z,10.33
2019-02-05T04:20:34.879Z,12.57
2019-02-05T04:24:00.702Z,10.43
2019-02-05T04:27:15.644Z,12.30
2019-02-05T04:30:21.374Z,13.97
2019-02-05T04:33:33.006Z,9.77
2019-02-05T04:36:36.035Z,10.63
2019-02-05T04:39:42.202Z,14.07
2019-02-05T04:42:40.757Z,11.20
2019-02-05T04:45:54.198Z,10.53
2019-02-05T04:48:50.739Z,12.23
2019-02-05T04:52:14.591Z,10.07
2019-02-05T04:55:35.105Z,10.33
2019-02-05T04:59:00.958Z,13.83
2019-02-05T05:02:19.576Z,10.93
2019-02-05T05:05:23.434Z,11.97
2019-02-05T05:08:22.899Z,9.97
2019-02-05T05:10:55.969Z,12.27
2019-02-05T05:13:26.662Z,11.77
2019-02-05T05:15:58.553Z,9.47
2019-02-05T05:18:29.548Z,14.33
2019-02-05T05:21:01.311Z,14.40
2019-02-05T05:23:32.887Z,12.27
2019-02-05T05:26:04.069Z,9.33
2019-02-05T05:28:35.390Z,12.63
2019-02-05T05:31:06.411Z,12.40
2019-02-05T05:33:37.448Z,17.43
2019-02-05T05:36:11.001Z,16.53
2019-02-05T05:38:44.004Z,17.47
2019-02-05T05:41:15.221Z,9.57
2019-02-05T05:43:46.162Z,9.47
2019-02-05T05:46:16.840Z,14.03
2019-02-05T05:48:48.086Z,15.20
2019-02-05T05:51:21.975Z,13.43
2019-02-05T05:53:53.457Z,12.43
2019-02-05T05:56:24.537Z,10.80
2019-02-05T05:58:58.858Z,13.17
2019-02-05T06:01:29.374Z,15.97
2019-02-05T06:04:00.403Z,14.20
2019-02-05T06:06:36.728Z,12.73
2019-02-05T06:09:09.374Z,11.73
2019-02-05T06:11:40.291Z,12.30
2019-02-05T06:14:11.653Z,13.77
2019-02-05T06:16:42.708Z,14.73
2019-02-05T06:19:13.593Z,16.47
2019-02-05T06:21:45.621Z,12.80
2019-02-05T06:24:16.272Z,15.10
2019-02-05T06:26:47.640Z,15.83
2019-02-05T06:29:18.830Z,10.87
2019-02-05T06:31:55.594Z,13.97
2019-02-05T06:34:29.268Z,15.30
2019-02-05T06:37:00.347Z,15.17
2019-02-05T06:39:31.412Z,16.40
2019-02-05T06:42:02.242Z,14.43
2019-02-05T06:44:33.202Z,11.60
2019-02-05T06:47:06.538Z,16.10
2019-02-05T06:49:37.484Z,14.97
2019-02-05T06:52:10.806Z,16.53
2019-02-05T06:54:41.921Z,16.77
2019-02-05T06:57:13.177Z,15.33
2019-02-05T06:59:44.043Z,16.30
2019-02-05T07:02:14.902Z,16.33
2019-02-05T07:04:45.618Z,18.57
2019-02-05T07:07:17.078Z,18.53
2019-02-05T07:09:48.085Z,18.13
2019-02-05T07:12:19.096Z,15.43
2019-02-05T07:14:51.579Z,16.43
2019-02-05T07:17:24.055Z,16.93
2019-02-05T07:19:55.063Z,17.07
2019-02-05T07:22:26.208Z,15.77
2019-02-05T07:24:57.676Z,17.57
2019-02-05T07:27:29.121Z,17.07
2019-02-05T07:30:00.387Z,20.90
2019-02-05T07:32:33.175Z,16.73
2019-02-05T07:35:04.994Z,19.73
2019-02-05T07:37:35.777Z,15.83
2019-02-05T07:40:11.603Z,17.07
2019-02-05T07:42:43.703Z,14.97
2019-02-05T07:45:19.088Z,18.17
2019-02-05T07:47:51.217Z,18.70
2019-02-05T07:50:23.921Z,18.73
2019-02-05T07:52:54.756Z,17.80
2019-02-05T07:55:27.679Z,20.30
2019-02-05T07:58:01.448Z,15.00
2019-02-05T08:00:33.866Z,14.77
2019-02-05T08:03:12.123Z,14.00
2019-02-05T08:05:44.633Z,23.40
2019-02-05T08:08:15.824Z,16.87
2019-02-05T08:10:50.645Z,21.00
2019-02-05T08:13:23.249Z,23.47
2019-02-05T08:15:54.071Z,17.47
2019-02-05T08:18:25.268Z,20.73
2019-02-05T08:20:55.840Z,20.30
2019-02-05T08:23:27.388Z,18.50
2019-02-05T08:26:00.693Z,19.00
2019-02-05T08:28:40.625Z,17.43
2019-02-05T08:31:03.747Z,17.50
2019-02-05T08:33:35.052Z,22.10
2019-02-05T08:36:08.786Z,19.80
2019-02-05T08:38:39.573Z,23.47
2019-02-05T08:41:12.385Z,18.90
2019-02-05T08:43:43.044Z,16.87
2019-02-05T08:46:15.948Z,21.83
2019-02-05T08:48:47.514Z,21.33
2019-02-05T08:51:25.146Z,19.73
2019-02-05T08:53:56.817Z,19.03
2019-02-05T08:56:28.015Z,19.10
2019-02-05T08:58:59.193Z,21.13
2019-02-05T09:01:31.096Z,19.27
2019-02-05T09:04:02.313Z,21.13
2019-02-05T09:06:35.473Z,19.00
2019-02-05T09:09:09.749Z,19.77
2019-02-05T09:11:41.079Z,20.97
2019-02-05T09:14:13.070Z,26.80
2019-02-05T09:16:49.757Z,19.67
2019-02-05T09:19:20.820Z,19.77
2019-02-05T09:21:57.330Z,17.53
2019-02-05T09:24:28.627Z,25.37
2019-02-05T09:27:00.618Z,19.33
2019-02-05T09:29:34.094Z,21.03
2019-02-05T09:32:04.806Z,19.70
2019-02-05T09:34:36.686Z,19.07
2019-02-05T09:37:08.003Z,21.60
2019-02-05T09:39:38.926Z,20.20
2019-02-05T09:42:10.027Z,20.03
2019-02-05T09:44:41.291Z,19.80
2019-02-05T09:47:15.723Z,18.03
2019-02-05T09:49:46.827Z,18.97
2019-02-05T09:52:20.926Z,19.93
2019-02-05T09:54:55.623Z,16.97
2019-02-05T09:57:26.961Z,20.20
2019-02-05T09:59:58.250Z,20.20
2019-02-05T10:02:29.310Z,23.53
2019-02-05T10:05:00.036Z,21.70
2019-02-05T10:07:31.253Z,23.70
2019-02-05T10:10:02.784Z,23.50
2019-02-05T10:12:34.837Z,26.90
2019-02-05T10:15:08.439Z,19.87
2019-02-05T10:17:39.582Z,23.33
2019-02-05T10:20:12.131Z,22.83
2019-02-05T10:22:43.871Z,25.43
2019-02-05T10:25:15.279Z,21.90
2019-02-05T10:27:46.936Z,24.40
2019-02-05T10:30:27.515Z,21.83
2019-02-05T10:32:58.174Z,23.27
2019-02-05T10:35:32.031Z,21.10
2019-02-05T10:38:08.654Z,23.70
2019-02-05T10:40:40.889Z,23.07
2019-02-05T10:43:15.149Z,18.83
2019-02-05T10:45:47.243Z,20.40
2019-02-05T10:48:17.902Z,22.53
2019-02-05T10:50:50.245Z,21.53
2019-02-05T10:53:21.311Z,23.67
2019-02-05T10:55:52.314Z,20.37
2019-02-05T10:58:26.562Z,20.43
2019-02-05T11:01:00.261Z,22.47
2019-02-05T11:03:31.506Z,22.07
2019-02-05T11:06:05.627Z,20.57
2019-02-05T11:08:38.945Z,22.17
2019-02-05T11:11:11.429Z,23.00
2019-02-05T11:13:42.694Z,24.13
2019-02-05T11:16:13.432Z,23.87
2019-02-05T11:18:44.148Z,21.40
2019-02-05T11:21:15.385Z,21.70
2019-02-05T11:23:48.724Z,24.17
2019-02-05T11:26:19.875Z,24.73
2019-02-05T11:29:10.183Z,25.97
2019-02-05T11:31:51.446Z,22.13
2019-02-05T11:34:22.833Z,23.23
2019-02-05T11:36:53.677Z,24.03
2019-02-05T11:39:27.333Z,24.47
2019-02-05T11:42:02.108Z,25.33
2019-02-05T11:44:37.983Z,24.77
2019-02-05T11:47:11.300Z,25.47
2019-02-05T11:49:42.420Z,22.20
2019-02-05T11:52:13.470Z,25.70
2019-02-05T11:54:47.337Z,22.77
2019-02-05T11:57:25.318Z,26.90
2019-02-05T11:59:59.190Z,25.47
2019-02-05T12:02:35.352Z,23.53
2019-02-05T12:05:06.749Z,23.10
2019-02-05T12:07:42.666Z,25.90
2019-02-05T12:10:18.598Z,25.37
2019-02-05T12:12:50.119Z,22.70
2019-02-05T12:15:22.169Z,26.97
2019-02-05T12:17:55.030Z,25.03
2019-02-05T12:20:26.380Z,25.57
2019-02-05T12:23:01.920Z,23.60
2019-02-05T12:25:34.221Z,24.87
2019-02-05T12:28:14.660Z,25.57
2019-02-05T12:30:49.158Z,25.43
2019-02-05T12:33:20.413Z,26.17
2019-02-05T12:35:56.872Z,24.30
2019-02-05T12:38:27.557Z,25.30
2019-02-05T12:41:09.076Z,26.93
2019-02-05T12:43:41.787Z,25.60
2019-02-05T12:46:16.400Z,26.77
2019-02-05T12:48:47.396Z,22.90
2019-02-05T12:51:18.221Z,26.83
2019-02-05T12:53:50.148Z,27.87
2019-02-05T12:56:22.925Z,27.73
2019-02-05T12:58:55.677Z,25.23
2019-02-05T13:01:26.358Z,31.77
2019-02-05T13:04:00.767Z,28.03
2019-02-05T13:06:32.293Z,28.17
2019-02-05T13:09:07.357Z,26.53
2019-02-05T13:11:39.597Z,25.27
2019-02-05T13:14:10.661Z,24.03
2019-02-05T13:16:44.639Z,27.47
2019-02-05T13:19:15.788Z,28.77
2019-02-05T13:21:46.810Z,25.63
2019-02-05T13:24:21.080Z,28.53
2019-02-05T13:26:53.240Z,30.07
2019-02-05T13:29:28.885Z,26.27
2019-02-05T13:32:01.889Z,26.30
2019-02-05T13:34:33.267Z,30.03
2019-02-05T13:37:04.092Z,26.40
2019-02-05T13:39:34.909Z,33.57
2019-02-05T13:42:09.810Z,25.00
2019-02-05T13:44:44.887Z,22.97
2019-02-05T13:47:17.326Z,24.43
2019-02-05T13:49:49.111Z,23.90
2019-02-05T13:52:22.549Z,22.13
2019-02-05T13:54:55.190Z,24.60
2019-02-05T13:57:39.563Z,22.00
2019-02-05T14:00:18.343Z,21.83
2019-02-05T14:02:55.099Z,22.77
2019-02-05T14:05:32.866Z,24.33
2019-02-05T14:08:06.708Z,21.10
2019-02-05T14:10:38.004Z,23.90
2019-02-05T14:13:09.417Z,21.67
2019-02-05T14:15:41.692Z,20.27
2019-02-05T14:18:23.216Z,23.40
2019-02-05T14:20:54.706Z,18.70
2019-02-05T14:23:25.364Z,20.77
2019-02-05T14:26:00.103Z,22.87
2019-02-05T14:28:49.829Z,22.87
2019-02-05T14:31:31.151Z,23.93
2019-02-05T14:34:01.880Z,28.57
2019-02-05T14:36:35.131Z,22.27
2019-02-05T14:39:11.671Z,23.23
2019-02-05T14:41:47.219Z,27.60
2019-02-05T14:44:21.185Z,26.30
2019-02-05T14:46:52.538Z,25.80
2019-02-05T14:49:23.122Z,25.60
2019-02-05T14:51:57.879Z,27.87
2019-02-05T14:54:28.188Z,27.67
2019-02-05T14:57:08.386Z,24.87
2019-02-05T14:59:48.187Z,29.00
2019-02-05T15:02:44.209Z,23.47
2019-02-05T15:05:22.059Z,24.43
2019-02-05T15:07:52.611Z,23.57
2019-02-05T15:10:30.027Z,20.70
2019-02-05T15:13:04.251Z,25.60
2019-02-05T15:15:44.699Z,26.70
2019-02-05T15:18:23.793Z,25.40
2019-02-05T15:20:55.353Z,24.13
2019-02-05T15:23:26.790Z,27.07
2019-02-05T15:25:59.274Z,29.90
2019-02-05T15:28:34.810Z,25.53
2019-02-05T15:31:12.630Z,26.43
2019-02-05T15:33:53.642Z,28.73
2019-02-05T15:36:46.381Z,25.23
2019-02-05T15:39:17.822Z,26.83
2019-02-05T15:41:49.104Z,27.67
2019-02-05T15:44:26.162Z,23.63
2019-02-05T15:47:08.522Z,28.03
2019-02-05T15:49:44.784Z,23.93
2019-02-05T15:52:18.216Z,27.37
2019-02-05T15:54:54.102Z,25.07
2019-02-05T15:57:31.691Z,24.40
2019-02-05T15:59:59.415Z,22.63
2019-02-05T16:02:33.861Z,25.87
2019-02-05T16:05:16.844Z,25.57
2019-02-05T16:07:57.995Z,33.27
2019-02-05T16:10:32.525Z,25.60
2019-02-05T16:13:12.788Z,24.47
2019-02-05T16:15:51.008Z,23.93
2019-02-05T16:18:25.977Z,27.73
2019-02-05T16:20:58.938Z,28.57
2019-02-05T16:23:41.798Z,32.37
2019-02-05T16:26:14.354Z,26.97
2019-02-05T16:28:50.842Z,28.80
2019-02-05T16:31:28.125Z,27.22
2019-02-05T16:34:02.344Z,24.90
2019-02-05T16:36:36.136Z,24.53
2019-02-05T16:39:13.170Z,22.13
2019-02-05T16:41:44.455Z,31.27
2019-02-05T16:44:15.859Z,24.70
2019-02-05T16:46:49.882Z,26.30
2019-02-05T16:49:22.515Z,26.07
2019-02-05T16:51:53.629Z,26.90
2019-02-05T16:54:34.349Z,28.87
2019-02-05T16:57:07.251Z,26.43
2019-02-05T16:59:42.761Z,26.57
2019-02-05T17:02:16.202Z,27.87
2019-02-05T17:04:51.609Z,28.50
2019-02-05T17:07:33.707Z,26.13
2019-02-05T17:10:24.988Z,28.97
2019-02-05T17:12:54.172Z,29.53
2019-02-05T17:15:28.281Z,28.30
2019-02-05T17:18:06.406Z,27.53
2019-02-05T17:20:38.828Z,31.33
2019-02-05T17:23:21.642Z,28.40
2019-02-05T17:25:55.241Z,28.07
2019-02-05T17:28:34.575Z,33.87
2019-02-05T17:31:16.274Z,31.43
2019-02-05T17:33:48.087Z,28.50
2019-02-05T17:36:21.492Z,28.20
2019-02-05T17:38:53.763Z,24.63
2019-02-05T17:41:41.834Z,27.00
2019-02-05T17:44:22.104Z,31.83
2019-02-05T17:46:56.309Z,29.27
2019-02-05T17:49:28.105Z,31.43
2019-02-05T17:52:08.305Z,31.33
2019-02-05T17:54:44.337Z,34.17
2019-02-05T17:57:19.125Z,32.63
2019-02-05T17:59:53.081Z,32.57
2019-02-05T18:02:27.221Z,28.13
2019-02-05T18:04:59.097Z,35.40
2019-02-05T18:07:36.633Z,32.97
2019-02-05T18:10:14.496Z,30.40
2019-02-05T18:12:51.893Z,34.70
2019-02-05T18:15:32.281Z,27.87
2019-02-05T18:18:11.317Z,33.13
2019-02-05T18:20:46.139Z,29.07
2019-02-05T18:23:19.546Z,29.83
2019-02-05T18:25:54.415Z,31.47
2019-02-05T18:28:38.512Z,33.43
2019-02-05T18:31:09.553Z,29.13
2019-02-05T18:33:56.295Z,30.67
2019-02-05T18:36:28.670Z,30.53
2019-02-05T18:39:06.816Z,28.17
2019-02-05T18:41:43.521Z,30.50
2019-02-05T18:44:28.251Z,36.07
2019-02-05T18:47:01.694Z,39.37
2019-02-05T18:49:36.124Z,31.30
2019-02-05T18:52:15.983Z,35.90
2019-02-05T18:54:54.554Z,33.40
2019-02-05T18:57:52.549Z,31.17
2019-02-05T19:00:40.663Z,34.70
2019-02-05T19:03:36.279Z,37.30
2019-02-05T19:06:25.280Z,35.77
2019-02-05T19:09:15.099Z,38.57
2019-02-05T19:11:49.165Z,34.60
2019-02-05T19:14:41.075Z,32.17
2019-02-05T19:17:27.145Z,36.07
2019-02-05T19:20:05.974Z,32.23
2019-02-05T19:22:38.245Z,32.23
2019-02-05T19:25:37.033Z,35.93
2019-02-05T19:28:19.069Z,34.67
2019-02-05T19:30:54.308Z,32.63
2019-02-05T19:33:31.713Z,36.50
2019-02-05T19:36:05.935Z,39.00
2019-02-05T19:38:56.181Z,35.30
2019-02-05T19:41:37.836Z,32.60
2019-02-05T19:44:12.788Z,37.77
2019-02-05T19:47:22.602Z,35.77
2019-02-05T19:49:58.650Z,35.00
2019-02-05T19:52:41.206Z,44.53
2019-02-05T19:55:18.358Z,51.30
2019-02-05T19:58:00.601Z,39.57
2019-02-05T20:00:48.092Z,40.03
2019-02-05T20:03:38.963Z,40.37
2019-02-05T20:06:14.094Z,38.47
2019-02-05T20:09:02.617Z,37.27
2019-02-05T20:11:40.333Z,36.60
2019-02-05T20:14:13.079Z,35.40
2019-02-05T20:16:47.051Z,35.80
2019-02-05T20:19:24.778Z,37.20
2019-02-05T20:22:00.379Z,33.00
2019-02-05T20:24:40.900Z,35.27
2019-02-05T20:27:32.817Z,37.07
2019-02-05T20:30:10.831Z,37.63
2019-02-05T20:32:43.891Z,37.03
2019-02-05T20:35:22.349Z,35.77
2019-02-05T20:38:17.602Z,37.10
2019-02-05T20:41:08.819Z,34.60
2019-02-05T20:43:47.787Z,33.77
2019-02-05T20:46:30.068Z,36.60
2019-02-05T20:49:10.960Z,35.97
2019-02-05T20:51:45.080Z,38.00
2019-02-05T20:54:21.377Z,36.80
2019-02-05T20:56:53.777Z,36.83
2019-02-05T21:00:01.117Z,37.93
2019-02-05T21:02:38.351Z,38.87
2019-02-05T21:05:31.204Z,40.70
2019-02-05T21:08:15.222Z,39.23
2019-02-05T21:11:00.281Z,38.23
2019-02-05T21:13:33.079Z,42.70
2019-02-05T21:16:08.330Z,43.00
2019-02-05T21:18:43.648Z,41.50
2019-02-05T21:22:01.847Z,46.20
2019-02-05T21:24:41.591Z,38.90
2019-02-05T21:27:30.825Z,41.10
2019-02-05T21:30:08.801Z,44.83
2019-02-05T21:32:47.921Z,43.27
2019-02-05T21:35:33.860Z,40.70
2019-02-05T21:38:09.105Z,42.47
2019-02-05T21:40:43.455Z,41.67
2019-02-05T21:43:17.187Z,42.50
2019-02-05T21:45:49.767Z,43.43
2019-02-05T21:48:24.249Z,53.20
2019-02-05T21:50:57.358Z,44.53
2019-02-05T21:53:30.761Z,40.87
2019-02-05T21:56:01.817Z,41.70
2019-02-05T21:58:36.070Z,45.00
2019-02-05T22:01:07.631Z,50.03
2019-02-05T22:06:16.531Z,49.17
2019-02-05T22:08:48.087Z,42.07
2019-02-05T22:11:19.223Z,44.17
2019-02-05T22:13:53.454Z,49.23
2019-02-05T22:16:24.338Z,44.83
2019-02-05T22:18:58.809Z,47.53
2019-02-05T22:21:34.045Z,46.33
2019-02-05T22:24:05.630Z,45.13
2019-02-05T22:26:39.628Z,42.67
2019-02-05T22:29:12.195Z,50.33
2019-02-05T22:31:46.687Z,45.50
2019-02-05T22:34:25.226Z,45.97
2019-02-05T22:36:59.124Z,48.93
2019-02-05T22:39:34.284Z,48.17
2019-02-05T22:42:09.401Z,45.50
2019-02-05T22:44:43.512Z,46.70
2019-02-05T22:47:17.410Z,48.27
2019-02-05T22:49:48.249Z,45.43
2019-02-05T22:52:19.699Z,41.83
2019-02-05T22:54:58.248Z,43.90
2019-02-05T22:57:31.704Z,42.60
2019-02-05T23:00:05.083Z,40.07
2019-02-05T23:02:40.203Z,44.03
2019-02-05T23:05:47.312Z,43.73
2019-02-05T23:08:18.489Z,41.87
2019-02-05T23:11:24.289Z,46.10
2019-02-05T23:13:55.161Z,46.03
2019-02-05T23:16:25.925Z,46.50
2019-02-05T23:18:58.372Z,53.47
2019-02-05T23:21:32.492Z,48.80
2019-02-05T23:24:09.019Z,52.97
2019-02-05T23:26:40.556Z,44.83
2019-02-05T23:29:12.096Z,45.60
2019-02-05T23:31:43.095Z,49.30
2019-02-05T23:34:13.958Z,48.47
2019-02-05T23:36:45.108Z,51.03
2019-02-05T23:39:20.767Z,51.70
2019-02-05T23:41:57.351Z,43.93
2019-02-05T23:44:35.110Z,47.47
2019-02-05T23:47:06.678Z,46.40
2019-02-05T23:49:41.227Z,44.03
2019-02-05T23:52:13.838Z,52.13
2019-02-05T23:54:53.491Z,46.73
2019-02-05T23:57:25.751Z,48.97
2019-02-05T23:59:56.655Z,45.13
